Time;durP1;ratioP1;P1;durP2;ratioP2;P2;SDS_P1;SDS_P2;PMS_P1;PMS_P2;Temp;Humidity;BMP_temperature;BMP_pressure;BME280_temperature;BME280_humidity;BME280_pressure;Samples;Min_cycle;Max_cycle;Signal;HPM_P1;HPM_P2
2021/09/12 00:00:51;;;;;;;;;;;18.00;44.00;;;;;;4336786;33;20010;-45
2021/09/12 00:03:17;;;;;;;;;;;18.00;43.90;;;;;;4343337;33;19977;-45
2021/09/12 00:05:43;;;;;;;;;;;18.10;44.00;;;;;;4343617;33;20117;-45
2021/09/12 00:08:09;;;;;;;;;;;18.10;43.90;;;;;;4343440;33;20006;-43
2021/09/12 00:10:35;;;;;;;;;;;18.20;44.20;;;;;;4343563;33;19985;-44
2021/09/12 00:13:03;;;;;;;;;;;18.20;43.80;;;;;;4343361;33;19982;-43
2021/09/12 00:15:29;;;;;;;;;;;18.20;43.70;;;;;;4354042;32;20463;-45
2021/09/12 00:17:55;;;;;;;;;;;18.30;43.70;;;;;;4357902;32;19997;-48
2021/09/12 00:20:22;;;;;;;;;;;18.30;43.60;;;;;;4344603;32;20114;-40
2021/09/12 00:22:48;;;;;;;;;;;18.30;43.60;;;;;;4357941;32;19963;-49
2021/09/12 00:25:14;;;;;;;;;;;18.20;43.60;;;;;;4357793;32;20371;-43
2021/09/12 00:27:40;;;;;;;;;;;18.20;43.60;;;;;;4358071;32;19970;-41
2021/09/12 00:30:07;;;;;;;;;;;18.20;43.70;;;;;;4360702;32;20466;-44
2021/09/12 00:32:33;;;;;;;;;;;18.20;43.70;;;;;;4347388;32;19979;-44
2021/09/12 00:34:59;;;;;;;;;;;18.10;43.80;;;;;;4361477;32;19973;-45
2021/09/12 00:37:26;;;;;;;;;;;18.10;43.80;;;;;;4360955;32;20053;-44
2021/09/12 00:39:52;;;;;;;;;;;18.10;43.90;;;;;;4361221;32;19977;-44
2021/09/12 00:42:18;;;;;;;;;;;18.10;44.00;;;;;;4340927;33;20390;-45
2021/09/12 00:44:45;;;;;;;;;;;18.00;44.10;;;;;;4346120;33;19973;-45
2021/09/12 00:47:12;;;;;;;;;;;18.00;44.30;;;;;;4345759;33;19969;-49
2021/09/12 00:49:39;;;;;;;;;;;17.90;44.40;;;;;;4346364;33;19978;-50
2021/09/12 00:52:09;;;;;;;;;;;17.90;44.50;;;;;;4345536;33;20360;-47
2021/09/12 00:54:36;;;;;;;;;;;17.80;44.60;;;;;;4345583;33;20009;-47
2021/09/12 00:57:05;;;;;;;;;;;17.80;44.70;;;;;;4345754;33;20412;-46
2021/09/12 00:59:31;;;;;;;;;;;17.80;44.80;;;;;;4332675;33;19982;-47
2021/09/12 01:01:58;;;;;;;;;;;17.80;44.90;;;;;;4345651;33;19959;-47
2021/09/12 01:04:24;;;;;;;;;;;17.70;44.90;;;;;;4346015;33;19995;-46
2021/09/12 01:06:50;;;;;;;;;;;17.70;45.00;;;;;;4345547;33;20391;-46
2021/09/12 01:09:17;;;;;;;;;;;17.70;45.10;;;;;;4345566;33;19990;-45
2021/09/12 01:11:44;;;;;;;;;;;17.70;45.40;;;;;;4345311;33;20039;-46
2021/09/12 01:14:10;;;;;;;;;;;17.70;45.40;;;;;;4345675;33;19975;-45
2021/09/12 01:16:36;;;;;;;;;;;17.80;45.40;;;;;;4345958;33;20035;-46
2021/09/12 01:19:02;;;;;;;;;;;17.80;45.40;;;;;;4345362;33;19966;-43
2021/09/12 01:21:29;;;;;;;;;;;17.80;45.40;;;;;;4345280;33;20378;-46
2021/09/12 01:23:55;;;;;;;;;;;17.80;45.60;;;;;;4345459;33;20532;-45
2021/09/12 01:26:26;;;;;;;;;;;17.80;45.60;;;;;;4345539;33;19974;-44
2021/09/12 01:28:52;;;;;;;;;;;17.80;45.70;;;;;;4345490;33;19985;-45
2021/09/12 01:31:29;;;;;;;;;;;17.70;45.70;;;;;;4345169;33;19965;-44
2021/09/12 01:33:56;;;;;;;;;;;17.70;45.70;;;;;;4345507;33;20058;-44
2021/09/12 01:36:23;;;;;;;;;;;17.70;46.00;;;;;;4345490;33;19993;-44
2021/09/12 01:38:49;;;;;;;;;;;17.70;46.30;;;;;;4345365;32;19965;-46
2021/09/12 01:41:15;;;;;;;;;;;17.60;46.40;;;;;;4318661;33;19990;-45
2021/09/12 01:43:52;;;;;;;;;;;17.60;46.40;;;;;;4345367;33;19978;-45
2021/09/12 01:46:18;;;;;;;;;;;17.60;46.40;;;;;;4345162;33;19975;-46
2021/09/12 01:48:44;;;;;;;;;;;17.50;46.60;;;;;;4345053;33;19986;-49
2021/09/12 01:51:11;;;;;;;;;;;17.50;46.70;;;;;;4345126;33;20386;-46
2021/09/12 01:53:37;;;;;;;;;;;17.50;46.70;;;;;;4344851;33;20383;-44
2021/09/12 01:56:04;;;;;;;;;;;17.50;46.80;;;;;;4345144;33;20041;-46
2021/09/12 01:58:30;;;;;;;;;;;17.50;47.10;;;;;;4345248;33;19970;-46
2021/09/12 02:00:56;;;;;;;;;;;17.40;47.20;;;;;;4344858;33;20055;-45
2021/09/12 02:03:22;;;;;;;;;;;17.50;47.40;;;;;;4344914;33;20013;-44
2021/09/12 02:05:49;;;;;;;;;;;17.50;47.50;;;;;;4344992;33;20076;-47
2021/09/12 02:08:15;;;;;;;;;;;17.50;47.60;;;;;;4331352;33;20073;-47
2021/09/12 02:10:42;;;;;;;;;;;17.50;47.70;;;;;;4345097;33;19996;-46
2021/09/12 02:13:10;;;;;;;;;;;17.50;47.70;;;;;;4331315;33;19998;-44
2021/09/12 02:15:36;;;;;;;;;;;17.50;47.80;;;;;;4345089;33;19959;-46
2021/09/12 02:18:02;;;;;;;;;;;17.60;47.80;;;;;;4345026;33;19962;-45
2021/09/12 02:20:28;;;;;;;;;;;17.60;47.80;;;;;;4344713;33;19987;-45
2021/09/12 02:22:55;;;;;;;;;;;17.70;47.80;;;;;;4345067;33;20013;-43
2021/09/12 02:25:21;;;;;;;;;;;17.70;47.80;;;;;;4344697;33;19967;-45
2021/09/12 02:27:47;;;;;;;;;;;17.80;47.70;;;;;;4344755;33;19986;-44
2021/09/12 02:30:13;;;;;;;;;;;17.90;47.70;;;;;;4344497;33;20520;-44
2021/09/12 02:32:40;;;;;;;;;;;17.90;47.60;;;;;;4330848;33;19963;-46
2021/09/12 02:35:07;;;;;;;;;;;18.00;47.60;;;;;;4344843;33;19967;-46
2021/09/12 02:37:33;;;;;;;;;;;18.10;47.40;;;;;;4344155;33;20445;-44
2021/09/12 02:39:59;;;;;;;;;;;18.20;47.30;;;;;;4344503;33;19994;-46
2021/09/12 02:42:25;;;;;;;;;;;18.30;47.10;;;;;;4350911;32;20421;-43
2021/09/12 02:44:52;;;;;;;;;;;18.40;47.20;;;;;;4359199;32;19962;-45
2021/09/12 02:47:19;;;;;;;;;;;18.50;46.90;;;;;;4359213;32;20107;-44
2021/09/12 02:49:45;;;;;;;;;;;18.60;46.70;;;;;;4358569;32;20474;-45
2021/09/12 02:52:11;;;;;;;;;;;18.60;46.70;;;;;;4358644;32;20425;-43
2021/09/12 02:54:37;;;;;;;;;;;18.60;47.50;;;;;;4359016;32;19979;-46
2021/09/12 02:57:04;;;;;;;;;;;18.50;46.80;;;;;;4359463;32;19970;-49
2021/09/12 02:59:30;;;;;;;;;;;18.50;46.70;;;;;;4359052;32;20634;-51
2021/09/12 03:01:56;;;;;;;;;;;18.50;46.60;;;;;;4326753;33;20432;-45
2021/09/12 03:04:24;;;;;;;;;;;18.50;46.70;;;;;;4327002;33;19963;-45
2021/09/12 03:06:51;;;;;;;;;;;18.50;46.80;;;;;;4326806;33;19970;-46
2021/09/12 03:09:17;;;;;;;;;;;18.50;46.70;;;;;;4326702;33;19983;-47
2021/09/12 03:11:44;;;;;;;;;;;18.50;46.70;;;;;;4314849;33;20083;-46
2021/09/12 03:14:10;;;;;;;;;;;18.50;46.70;;;;;;4326996;33;19959;-45
2021/09/12 03:16:36;;;;;;;;;;;18.50;46.70;;;;;;4327182;33;20391;-45
2021/09/12 03:19:02;;;;;;;;;;;18.60;46.70;;;;;;4326619;33;19986;-46
2021/09/12 03:21:28;;;;;;;;;;;18.60;46.90;;;;;;4326681;33;20006;-45
2021/09/12 03:23:54;;;;;;;;;;;18.60;46.80;;;;;;4326856;33;19975;-45
2021/09/12 03:26:21;;;;;;;;;;;18.50;46.90;;;;;;4326867;33;20063;-43
2021/09/12 03:28:47;;;;;;;;;;;18.60;47.10;;;;;;4326975;33;19986;-45
2021/09/12 03:31:13;;;;;;;;;;;18.60;47.10;;;;;;4326463;33;20032;-45
2021/09/12 03:33:39;;;;;;;;;;;18.60;47.10;;;;;;4326913;33;20018;-45
2021/09/12 03:36:06;;;;;;;;;;;18.60;47.20;;;;;;4326569;33;19971;-43
2021/09/12 03:38:32;;;;;;;;;;;18.60;47.30;;;;;;4331226;32;19966;-46
2021/09/12 03:40:58;;;;;;;;;;;18.60;47.50;;;;;;4358452;32;19995;-44
2021/09/12 03:43:24;;;;;;;;;;;18.60;47.50;;;;;;4345670;32;19989;-43
2021/09/12 03:45:50;;;;;;;;;;;18.60;47.60;;;;;;4343419;33;20054;-45
2021/09/12 03:48:17;;;;;;;;;;;18.60;47.60;;;;;;4343549;33;19970;-45
2021/09/12 03:50:43;;;;;;;;;;;18.70;47.60;;;;;;4343654;33;19958;-41
2021/09/12 03:53:09;;;;;;;;;;;18.80;47.40;;;;;;4343947;33;19979;-45
2021/09/12 03:55:35;;;;;;;;;;;18.90;47.30;;;;;;4343488;33;20033;-44
2021/09/12 03:58:02;;;;;;;;;;;18.90;46.90;;;;;;4343738;32;19970;-45
2021/09/12 04:00:28;;;;;;;;;;;19.00;46.70;;;;;;4343330;32;20461;-44
2021/09/12 04:02:54;;;;;;;;;;;19.10;46.60;;;;;;4329859;33;20557;-46
2021/09/12 04:05:20;;;;;;;;;;;19.20;46.50;;;;;;4346779;32;19974;-43
2021/09/12 04:07:46;;;;;;;;;;;19.30;46.30;;;;;;4333001;33;20030;-43
2021/09/12 04:10:13;;;;;;;;;;;19.30;46.10;;;;;;4346888;33;19963;-44
2021/09/12 04:12:39;;;;;;;;;;;19.50;46.00;;;;;;4332922;33;19955;-42
2021/09/12 04:15:06;;;;;;;;;;;19.70;45.90;;;;;;4346226;32;19993;-44
2021/09/12 04:17:32;;;;;;;;;;;20.00;45.60;;;;;;4346731;33;19978;-44
2021/09/12 04:19:58;;;;;;;;;;;20.30;45.50;;;;;;4332921;33;20060;-45
2021/09/12 04:22:24;;;;;;;;;;;20.60;45.00;;;;;;4346472;33;19974;-44
2021/09/12 04:24:50;;;;;;;;;;;21.00;44.50;;;;;;4332216;33;20545;-45
2021/09/12 04:27:17;;;;;;;;;;;21.30;43.80;;;;;;4346307;33;20120;-43
2021/09/12 04:29:43;;;;;;;;;;;21.60;43.40;;;;;;4346474;33;19974;-44
2021/09/12 04:32:09;;;;;;;;;;;22.00;42.60;;;;;;4332376;33;19959;-46
2021/09/12 04:34:35;;;;;;;;;;;22.30;41.60;;;;;;4346096;33;20065;-46
2021/09/12 04:37:02;;;;;;;;;;;22.60;41.00;;;;;;4346051;33;20075;-47
2021/09/12 04:39:29;;;;;;;;;;;22.90;40.40;;;;;;4346546;33;19975;-46
2021/09/12 04:41:55;;;;;;;;;;;23.20;40.50;;;;;;4349457;32;20033;-43
2021/09/12 04:44:21;;;;;;;;;;;23.40;39.30;;;;;;4360519;32;19978;-46
2021/09/12 04:46:48;;;;;;;;;;;23.70;38.80;;;;;;4346956;32;19954;-45
2021/09/12 04:49:14;;;;;;;;;;;23.90;38.70;;;;;;4360564;32;20444;-45
2021/09/12 04:51:40;;;;;;;;;;;24.10;38.50;;;;;;4360847;32;20009;-44
2021/09/12 04:54:06;;;;;;;;;;;24.30;37.90;;;;;;4360759;32;19974;-44
2021/09/12 04:56:32;;;;;;;;;;;24.40;37.10;;;;;;4360947;32;20120;-44
2021/09/12 04:58:58;;;;;;;;;;;24.50;36.80;;;;;;4360649;32;20420;-45
2021/09/12 05:01:25;;;;;;;;;;;24.70;36.30;;;;;;4360947;32;19982;-45
2021/09/12 05:03:52;;;;;;;;;;;24.90;36.30;;;;;;4360735;32;19962;-46
2021/09/12 05:06:18;;;;;;;;;;;25.20;35.80;;;;;;4360706;32;19985;-45
2021/09/12 05:08:44;;;;;;;;;;;25.50;35.10;;;;;;4360723;32;20481;-46
2021/09/12 05:11:10;;;;;;;;;;;25.70;35.00;;;;;;4360325;32;20062;-45
2021/09/12 05:13:37;;;;;;;;;;;26.10;34.40;;;;;;4360140;32;19978;-47
2021/09/12 05:16:03;;;;;;;;;;;26.40;34.10;;;;;;4360480;32;19970;-46
2021/09/12 05:18:30;;;;;;;;;;;26.70;33.30;;;;;;4360819;32;20059;-43
2021/09/12 05:20:56;;;;;;;;;;;26.90;32.90;;;;;;4360150;32;20423;-42
2021/09/12 05:23:22;;;;;;;;;;;27.00;31.90;;;;;;4360436;32;20049;-44
2021/09/12 05:25:50;;;;;;;;;;;27.20;32.20;;;;;;4360185;32;19969;-41
2021/09/12 05:28:17;;;;;;;;;;;27.20;32.20;;;;;;4360414;32;20370;-42
2021/09/12 05:30:43;;;;;;;;;;;27.30;32.10;;;;;;4360298;32;19970;-41
2021/09/12 05:33:09;;;;;;;;;;;27.30;31.90;;;;;;4360392;32;20009;-42
2021/09/12 05:35:36;;;;;;;;;;;27.40;31.80;;;;;;4360392;32;20075;-42
2021/09/12 05:38:02;;;;;;;;;;;27.60;31.40;;;;;;4360041;32;19974;-42
2021/09/12 05:40:28;;;;;;;;;;;27.70;31.20;;;;;;4360548;32;20029;-43
2021/09/12 05:42:54;;;;;;;;;;;27.70;31.20;;;;;;4336596;33;19978;-42
2021/09/12 05:45:21;;;;;;;;;;;27.80;30.90;;;;;;4345220;33;19995;-42
2021/09/12 05:47:47;;;;;;;;;;;27.80;30.50;;;;;;4345176;33;20379;-42
2021/09/12 05:50:13;;;;;;;;;;;27.70;30.30;;;;;;4345080;33;19974;-42
2021/09/12 05:52:40;;;;;;;;;;;27.70;30.40;;;;;;4331446;33;20348;-42
2021/09/12 05:55:06;;;;;;;;;;;27.60;30.80;;;;;;4331232;33;19981;-42
2021/09/12 05:57:33;;;;;;;;;;;27.60;30.80;;;;;;4345010;33;19967;-42
2021/09/12 05:59:59;;;;;;;;;;;27.60;30.90;;;;;;4344756;33;19982;-42
2021/09/12 06:02:25;;;;;;;;;;;27.60;31.10;;;;;;4344995;33;19969;-43
2021/09/12 06:04:51;;;;;;;;;;;27.50;31.10;;;;;;4345123;33;20403;-42
2021/09/12 06:07:18;;;;;;;;;;;27.50;31.40;;;;;;4319031;33;19970;-41
2021/09/12 06:09:44;;;;;;;;;;;27.50;31.30;;;;;;4344757;33;19977;-42
2021/09/12 06:12:10;;;;;;;;;;;27.50;31.40;;;;;;4330978;33;20116;-42
2021/09/12 06:14:37;;;;;;;;;;;27.50;31.20;;;;;;4344388;33;20108;-42
2021/09/12 06:17:05;;;;;;;;;;;27.50;31.10;;;;;;4344695;33;20399;-41
2021/09/12 06:19:35;;;;;;;;;;;27.40;31.20;;;;;;4344735;33;19969;-42
2021/09/12 06:22:03;;;;;;;;;;;27.40;31.40;;;;;;4344766;33;19969;-42
2021/09/12 06:24:29;;;;;;;;;;;27.60;31.50;;;;;;4344591;33;19974;-42
2021/09/12 06:26:55;;;;;;;;;;;27.80;31.30;;;;;;4344034;33;19987;-42
2021/09/12 06:29:21;;;;;;;;;;;28.20;31.20;;;;;;4344701;33;19962;-42
2021/09/12 06:31:48;;;;;;;;;;;28.60;31.00;;;;;;4344284;33;20417;-43
2021/09/12 06:34:14;;;;;;;;;;;29.10;30.00;;;;;;4344439;33;20434;-41
2021/09/12 06:36:40;;;;;;;;;;;29.60;29.80;;;;;;4344432;33;19989;-42
2021/09/12 06:39:06;;;;;;;;;;;29.80;29.10;;;;;;4344356;33;20045;-43
2021/09/12 06:41:32;;;;;;;;;;;29.90;28.30;;;;;;4345503;32;19970;-42
2021/09/12 06:43:58;;;;;;;;;;;30.00;28.50;;;;;;4359546;32;20037;-41
2021/09/12 06:46:25;;;;;;;;;;;30.20;28.30;;;;;;4359214;32;19977;-42
2021/09/12 06:48:51;;;;;;;;;;;30.30;28.30;;;;;;4359474;32;20073;-43
2021/09/12 06:51:17;;;;;;;;;;;30.50;28.20;;;;;;4359186;32;19962;-41
2021/09/12 06:53:43;;;;;;;;;;;30.50;27.90;;;;;;4359082;32;20499;-42
2021/09/12 06:56:09;;;;;;;;;;;30.60;28.00;;;;;;4345025;32;20401;-42
2021/09/12 06:58:35;;;;;;;;;;;30.70;28.00;;;;;;4359295;32;19970;-43
2021/09/12 07:01:02;;;;;;;;;;;30.80;27.80;;;;;;4358877;32;19973;-42
2021/09/12 07:03:28;;;;;;;;;;;30.90;28.00;;;;;;4359026;32;19974;-42
2021/09/12 07:05:54;;;;;;;;;;;31.00;27.70;;;;;;4358659;32;20487;-43
2021/09/12 07:08:20;;;;;;;;;;;31.20;27.80;;;;;;4345361;32;19989;-43
2021/09/12 07:10:47;;;;;;;;;;;31.30;27.70;;;;;;4344857;32;19978;-42
2021/09/12 07:13:13;;;;;;;;;;;31.50;27.70;;;;;;4359040;32;19958;-43
2021/09/12 07:15:39;;;;;;;;;;;31.70;27.70;;;;;;4358412;32;19963;-42
2021/09/12 07:18:05;;;;;;;;;;;31.80;27.50;;;;;;4358636;32;20031;-42
2021/09/12 07:20:32;;;;;;;;;;;32.10;27.60;;;;;;4358754;32;19963;-43
2021/09/12 07:22:58;;;;;;;;;;;32.30;27.40;;;;;;4358759;32;20048;-42
2021/09/12 07:25:25;;;;;;;;;;;32.50;27.30;;;;;;4358827;32;19962;-42
2021/09/12 07:27:51;;;;;;;;;;;32.60;27.40;;;;;;4359155;32;19958;-43
2021/09/12 07:30:18;;;;;;;;;;;32.70;27.00;;;;;;4358448;32;20048;-45
2021/09/12 07:32:44;;;;;;;;;;;32.80;26.70;;;;;;4358371;32;19985;-50
2021/09/12 07:35:10;;;;;;;;;;;32.90;26.50;;;;;;4325995;33;19982;-45
2021/09/12 07:37:37;;;;;;;;;;;33.00;26.50;;;;;;4326206;33;20058;-43
2021/09/12 07:40:04;;;;;;;;;;;33.00;26.40;;;;;;4326557;33;19978;-44
2021/09/12 07:42:30;;;;;;;;;;;33.10;26.40;;;;;;4313497;33;19978;-45
2021/09/12 07:44:56;;;;;;;;;;;33.10;26.50;;;;;;4326872;33;20070;-42
2021/09/12 07:47:22;;;;;;;;;;;33.20;26.60;;;;;;4326585;33;20523;-44
2021/09/12 07:49:49;;;;;;;;;;;33.20;26.30;;;;;;4326420;33;20001;-46
2021/09/12 07:52:15;;;;;;;;;;;33.40;26.40;;;;;;4326295;33;20009;-45
2021/09/12 07:54:41;;;;;;;;;;;33.60;26.50;;;;;;4326465;33;19981;-45
2021/09/12 07:57:07;;;;;;;;;;;33.80;26.00;;;;;;4326441;33;19975;-45
2021/09/12 07:59:33;;;;;;;;;;;33.90;25.90;;;;;;4326150;33;19981;-43
2021/09/12 08:01:59;;;;;;;;;;;34.10;25.70;;;;;;4326153;33;20495;-43
2021/09/12 08:04:26;;;;;;;;;;;34.20;25.50;;;;;;4326295;33;19974;-46
2021/09/12 08:06:52;;;;;;;;;;;34.30;25.50;;;;;;4326129;33;20446;-46
2021/09/12 08:09:18;;;;;;;;;;;34.30;25.50;;;;;;4326425;33;20054;-47
2021/09/12 08:11:44;;;;;;;;;;;34.40;25.40;;;;;;4328133;33;19979;-44
2021/09/12 08:14:10;;;;;;;;;;;34.50;25.40;;;;;;4342482;33;20418;-44
2021/09/12 08:16:37;;;;;;;;;;;34.50;25.20;;;;;;4343566;33;19966;-46
2021/09/12 08:19:03;;;;;;;;;;;34.30;25.20;;;;;;4343616;33;20052;-44
2021/09/12 08:21:29;;;;;;;;;;;34.20;25.30;;;;;;4329987;33;20117;-43
2021/09/12 08:23:55;;;;;;;;;;;34.10;25.40;;;;;;4343207;33;19970;-46
2021/09/12 08:26:22;;;;;;;;;;;33.90;25.30;;;;;;4343426;33;19974;-44
2021/09/12 08:28:49;;;;;;;;;;;33.90;25.40;;;;;;4343517;33;20436;-46
2021/09/12 08:31:15;;;;;;;;;;;33.90;25.30;;;;;;4343519;33;19984;-48
2021/09/12 08:33:41;;;;;;;;;;;34.00;25.30;;;;;;4343252;33;19967;-45
2021/09/12 08:36:08;;;;;;;;;;;34.10;25.10;;;;;;4343357;33;20051;-46
2021/09/12 08:38:34;;;;;;;;;;;34.30;25.20;;;;;;4343127;33;19971;-46
2021/09/12 08:41:00;;;;;;;;;;;34.50;25.10;;;;;;4342791;32;19981;-46
2021/09/12 08:43:26;;;;;;;;;;;34.80;24.80;;;;;;4343160;33;19973;-50
2021/09/12 08:45:53;;;;;;;;;;;34.90;24.50;;;;;;4343413;32;19970;-47
2021/09/12 08:48:19;;;;;;;;;;;34.80;24.40;;;;;;4343365;32;20042;-46
2021/09/12 08:50:46;;;;;;;;;;;34.80;24.00;;;;;;4345615;32;20072;-50
2021/09/12 08:53:12;;;;;;;;;;;35.00;24.00;;;;;;4345790;33;19970;-48
2021/09/12 08:55:38;;;;;;;;;;;35.30;24.00;;;;;;4345892;33;19990;-47
2021/09/12 08:58:05;;;;;;;;;;;35.30;23.80;;;;;;4343747;33;19971;-44
2021/09/12 09:00:31;;;;;;;;;;;35.30;23.90;;;;;;4345787;33;19978;-42
2021/09/12 09:03:01;;;;;;;;;;;35.30;23.60;;;;;;4328181;33;20084;-48
2021/09/12 09:05:50;;;;;;;;;;;35.10;23.60;;;;;;4328855;33;19971;-45
2021/09/12 09:08:17;;;;;;;;;;;34.80;23.70;;;;;;4328262;33;20496;-47
2021/09/12 09:10:44;;;;;;;;;;;34.50;24.00;;;;;;4328582;33;20410;-44
2021/09/12 09:13:31;;;;;;;;;;;34.30;24.20;;;;;;4328559;33;19986;-44
2021/09/12 09:16:01;;;;;;;;;;;34.20;24.20;;;;;;4328518;33;19989;-44
2021/09/12 09:18:35;;;;;;;;;;;33.80;24.30;;;;;;4328805;33;20016;-45
2021/09/12 09:21:21;;;;;;;;;;;33.50;24.60;;;;;;4328534;33;20447;-46
2021/09/12 09:23:48;;;;;;;;;;;33.20;24.90;;;;;;4315845;33;20041;-44
2021/09/12 09:26:21;;;;;;;;;;;33.00;25.20;;;;;;4328288;33;19971;-47
2021/09/12 09:28:54;;;;;;;;;;;33.00;25.50;;;;;;4327802;33;20428;-47
2021/09/12 09:31:23;;;;;;;;;;;33.20;25.50;;;;;;4327958;33;20450;-45
2021/09/12 09:33:50;;;;;;;;;;;33.30;25.30;;;;;;4336032;33;20056;-49
2021/09/12 09:36:17;;;;;;;;;;;33.50;25.00;;;;;;4345180;32;19994;-44
2021/09/12 09:38:46;;;;;;;;;;;33.60;24.80;;;;;;4331494;33;19989;-46
2021/09/12 09:41:20;;;;;;;;;;;33.70;24.70;;;;;;4345390;32;19969;-44
2021/09/12 09:43:48;;;;;;;;;;;33.70;24.60;;;;;;4345470;33;19995;-45
2021/09/12 09:46:34;;;;;;;;;;;33.70;24.70;;;;;;4344924;33;19966;-46
2021/09/12 09:49:20;;;;;;;;;;;33.80;24.70;;;;;;4345393;33;20046;-48
2021/09/12 09:51:57;;;;;;;;;;;33.80;24.70;;;;;;4320915;33;20587;-45
2021/09/12 09:54:31;;;;;;;;;;;33.90;24.40;;;;;;4345279;33;19989;-48
2021/09/12 09:56:58;;;;;;;;;;;34.10;24.50;;;;;;4344951;33;19967;-46
2021/09/12 09:59:25;;;;;;;;;;;34.20;24.40;;;;;;4345123;33;20005;-46
2021/09/12 10:01:54;;;;;;;;;;;34.30;24.60;;;;;;4344099;32;20043;-44
2021/09/12 10:04:22;;;;;;;;;;;34.50;24.70;;;;;;4344739;33;19963;-50
2021/09/12 10:06:49;;;;;;;;;;;34.80;24.60;;;;;;4344732;33;20375;-46
2021/09/12 10:09:17;;;;;;;;;;;35.10;24.60;;;;;;4345047;33;19996;-46
2021/09/12 10:11:52;;;;;;;;;;;35.10;24.50;;;;;;4330992;33;19963;-48
2021/09/12 10:14:34;;;;;;;;;;;35.20;24.60;;;;;;4344724;33;19966;-49
2021/09/12 10:17:01;;;;;;;;;;;35.30;24.30;;;;;;4345221;33;19959;-51
2021/09/12 10:19:38;;;;;;;;;;;35.50;24.20;;;;;;4330537;33;20046;-48
2021/09/12 10:22:22;;;;;;;;;;;35.60;24.10;;;;;;4344620;33;19966;-48
2021/09/12 10:25:00;;;;;;;;;;;35.70;24.10;;;;;;4344420;33;20364;-47
2021/09/12 10:28:07;;;;;;;;;;;35.90;24.00;;;;;;4344273;33;20010;-46
2021/09/12 10:30:38;;;;;;;;;;;36.00;23.70;;;;;;4344448;33;19978;-46
2021/09/12 10:33:07;;;;;;;;;;;36.10;23.80;;;;;;4344608;33;20095;-50
2021/09/12 10:35:48;;;;;;;;;;;36.00;23.90;;;;;;4344558;33;20099;-46
2021/09/12 10:38:25;;;;;;;;;;;36.00;24.00;;;;;;4330971;33;20191;-48
2021/09/12 10:40:53;;;;;;;;;;;36.10;24.00;;;;;;4330853;33;20035;-46
2021/09/12 10:43:29;;;;;;;;;;;36.20;24.00;;;;;;4343947;33;20454;-46
2021/09/12 10:46:01;;;;;;;;;;;36.20;24.00;;;;;;4344432;32;20512;-47
2021/09/12 10:48:37;;;;;;;;;;;36.20;23.90;;;;;;4344142;32;19996;-47
2021/09/12 10:51:10;;;;;;;;;;;36.20;23.80;;;;;;4342778;33;20078;-46
2021/09/12 10:53:45;;;;;;;;;;;36.10;23.80;;;;;;4344382;32;19985;-50
2021/09/12 10:56:15;;;;;;;;;;;36.00;23.70;;;;;;4344198;32;19963;-49
2021/09/12 10:58:42;;;;;;;;;;;35.80;23.70;;;;;;4343997;32;19966;-44
2021/09/12 11:01:08;;;;;;;;;;;35.70;23.70;;;;;;4344124;32;19989;-45
2021/09/12 11:03:35;;;;;;;;;;;35.70;23.70;;;;;;4342847;33;19966;-47
2021/09/12 11:06:01;;;;;;;;;;;35.80;23.80;;;;;;4344142;32;19977;-46
2021/09/12 11:08:37;;;;;;;;;;;35.80;23.80;;;;;;4343922;32;20419;-47
2021/09/12 11:11:04;;;;;;;;;;;36.00;23.80;;;;;;4343856;33;20083;-46
2021/09/12 11:13:31;;;;;;;;;;;36.10;23.80;;;;;;4343709;32;19970;-45
2021/09/12 11:16:11;;;;;;;;;;;36.30;23.80;;;;;;4357260;32;19962;-46
2021/09/12 11:18:50;;;;;;;;;;;36.50;23.80;;;;;;4358517;32;20508;-46
2021/09/12 11:21:33;;;;;;;;;;;36.50;23.70;;;;;;4358947;32;19994;-49
2021/09/12 11:24:13;;;;;;;;;;;36.50;23.50;;;;;;4345161;32;20541;-46
2021/09/12 11:26:53;;;;;;;;;;;36.50;23.70;;;;;;4358651;32;19997;-43
2021/09/12 11:29:30;;;;;;;;;;;36.50;23.70;;;;;;4358837;32;20041;-46
2021/09/12 11:32:07;;;;;;;;;;;36.40;23.70;;;;;;4358475;32;19986;-45
2021/09/12 11:34:34;;;;;;;;;;;36.30;23.60;;;;;;4358346;32;19988;-46
2021/09/12 11:37:08;;;;;;;;;;;36.20;23.70;;;;;;4358621;32;20395;-49
2021/09/12 11:39:42;;;;;;;;;;;36.00;23.80;;;;;;4358485;32;19995;-45
2021/09/12 11:42:10;;;;;;;;;;;35.80;23.80;;;;;;4353756;32;19967;-46
2021/09/12 11:44:38;;;;;;;;;;;35.70;23.70;;;;;;4343805;33;20026;-46
2021/09/12 11:47:08;;;;;;;;;;;35.60;23.80;;;;;;4343479;33;19990;-47
2021/09/12 11:49:35;;;;;;;;;;;35.50;23.80;;;;;;4343778;32;20048;-46
2021/09/12 11:52:01;;;;;;;;;;;35.40;23.90;;;;;;4343609;32;20009;-46
2021/09/12 11:54:28;;;;;;;;;;;35.20;24.00;;;;;;4343145;33;20055;-48
2021/09/12 11:56:58;;;;;;;;;;;35.00;23.90;;;;;;4343750;33;20054;-51
2021/09/12 11:59:25;;;;;;;;;;;34.80;24.00;;;;;;4343499;33;19979;-46
2021/09/12 12:01:53;;;;;;;;;;;34.70;24.10;;;;;;4329903;33;19966;-47
2021/09/12 12:04:19;;;;;;;;;;;34.40;24.20;;;;;;4343198;33;19975;-44
2021/09/12 12:06:46;;;;;;;;;;;34.20;24.30;;;;;;4329729;33;20474;-48
2021/09/12 12:09:16;;;;;;;;;;;34.10;24.40;;;;;;4343492;33;20002;-46
2021/09/12 12:11:44;;;;;;;;;;;33.90;24.50;;;;;;4343212;32;19954;-43
2021/09/12 12:14:24;;;;;;;;;;;33.60;24.50;;;;;;4343153;33;19967;-46
2021/09/12 12:16:51;;;;;;;;;;;33.40;24.80;;;;;;4343290;33;19967;-46
2021/09/12 12:19:17;;;;;;;;;;;33.00;25.10;;;;;;4343175;33;20440;-45
2021/09/12 12:21:45;;;;;;;;;;;32.60;25.40;;;;;;4343004;33;19970;-47
2021/09/12 12:24:22;;;;;;;;;;;32.20;25.70;;;;;;4344296;32;19970;-48
2021/09/12 12:26:54;;;;;;;;;;;31.80;25.80;;;;;;4346659;33;20017;-49
2021/09/12 12:29:40;;;;;;;;;;;31.50;26.10;;;;;;4346398;33;19970;-46
2021/09/12 12:32:08;;;;;;;;;;;31.30;26.20;;;;;;4346182;33;20414;-46
2021/09/12 12:34:52;;;;;;;;;;;31.30;26.30;;;;;;4332620;33;19967;-50
2021/09/12 12:37:43;;;;;;;;;;;31.40;26.30;;;;;;4332979;33;19974;-47
2021/09/12 12:40:22;;;;;;;;;;;31.50;26.30;;;;;;4346773;33;20063;-51
2021/09/12 12:42:50;;;;;;;;;;;31.60;26.20;;;;;;4354864;32;20089;-49
2021/09/12 12:45:27;;;;;;;;;;;31.70;26.00;;;;;;4360660;32;20078;-46
2021/09/12 12:48:17;;;;;;;;;;;31.60;25.80;;;;;;4360916;32;19973;-47
2021/09/12 12:50:44;;;;;;;;;;;31.50;25.80;;;;;;4360875;32;20474;-50
2021/09/12 12:53:28;;;;;;;;;;;31.50;25.80;;;;;;4361018;32;19978;-49
2021/09/12 12:55:56;;;;;;;;;;;31.60;25.80;;;;;;4360646;32;19962;-51
2021/09/12 12:58:23;;;;;;;;;;;31.80;25.70;;;;;;4360837;32;19969;-46
2021/09/12 13:00:50;;;;;;;;;;;31.80;25.70;;;;;;4360776;32;19966;-48
2021/09/12 13:03:17;;;;;;;;;;;31.80;25.80;;;;;;4360891;32;19997;-47
2021/09/12 13:05:44;;;;;;;;;;;31.90;25.80;;;;;;4360899;32;19973;-50
2021/09/12 13:08:11;;;;;;;;;;;31.90;25.80;;;;;;4360655;32;20410;-48
2021/09/12 13:10:37;;;;;;;;;;;31.90;25.80;;;;;;4360549;32;19959;-46
2021/09/12 13:13:04;;;;;;;;;;;31.80;25.80;;;;;;4346100;32;20355;-46
2021/09/12 13:15:30;;;;;;;;;;;31.70;25.90;;;;;;4360297;32;19966;-47
2021/09/12 13:17:56;;;;;;;;;;;31.60;26.00;;;;;;4360335;32;19982;-45
2021/09/12 13:20:22;;;;;;;;;;;31.40;26.10;;;;;;4360068;32;19967;-46
2021/09/12 13:22:49;;;;;;;;;;;31.40;26.30;;;;;;4346393;32;19990;-48
2021/09/12 13:25:17;;;;;;;;;;;31.40;26.40;;;;;;4360117;32;20055;-45
2021/09/12 13:27:43;;;;;;;;;;;31.30;26.30;;;;;;4360286;32;20106;-46
2021/09/12 13:30:10;;;;;;;;;;;31.30;26.40;;;;;;4360158;32;19962;-47
2021/09/12 13:32:36;;;;;;;;;;;31.30;26.50;;;;;;4346686;32;20471;-51
2021/09/12 13:35:03;;;;;;;;;;;31.40;26.60;;;;;;4359828;32;20385;-45
2021/09/12 13:37:29;;;;;;;;;;;31.50;26.50;;;;;;4359892;32;20418;-47
2021/09/12 13:39:55;;;;;;;;;;;31.70;26.50;;;;;;4359973;32;20009;-48
2021/09/12 13:42:21;;;;;;;;;;;31.70;26.50;;;;;;4353646;32;19967;-45
2021/09/12 13:44:48;;;;;;;;;;;31.70;26.50;;;;;;4345105;33;19962;-43
2021/09/12 13:47:14;;;;;;;;;;;31.80;26.60;;;;;;4345145;33;20387;-47
2021/09/12 13:49:40;;;;;;;;;;;31.80;26.50;;;;;;4344889;33;20419;-47
2021/09/12 13:52:06;;;;;;;;;;;31.90;26.50;;;;;;4331013;33;19987;-46
2021/09/12 13:54:32;;;;;;;;;;;31.90;26.50;;;;;;4345214;33;19973;-48
2021/09/12 13:57:00;;;;;;;;;;;31.90;26.60;;;;;;4345043;33;19967;-48
2021/09/12 13:59:27;;;;;;;;;;;32.00;26.70;;;;;;4344973;33;19974;-49
2021/09/12 14:01:53;;;;;;;;;;;32.10;26.80;;;;;;4345221;33;19959;-49
2021/09/12 14:04:20;;;;;;;;;;;32.10;26.90;;;;;;4344813;33;19978;-47
2021/09/12 14:06:46;;;;;;;;;;;32.00;26.90;;;;;;4344980;33;19974;-48
2021/09/12 14:09:12;;;;;;;;;;;32.00;27.60;;;;;;4344886;33;20009;-44
2021/09/12 14:11:38;;;;;;;;;;;31.90;27.20;;;;;;4344850;33;20291;-47
2021/09/12 14:14:05;;;;;;;;;;;31.90;27.30;;;;;;4344468;33;20149;-47
2021/09/12 14:16:31;;;;;;;;;;;31.80;27.50;;;;;;4344881;33;19966;-49
2021/09/12 14:18:57;;;;;;;;;;;31.70;27.60;;;;;;4344683;33;19983;-47
2021/09/12 14:21:23;;;;;;;;;;;31.70;27.90;;;;;;4344407;33;20435;-45